Crystal Falls, MI

3:13 PM CDT on October 25, 2014 (GMT -0500)
Kings Land O'Lakes | Change Station
CLOSE
Current Station
Airport
Location: Land O' Lakes,
Elevation: 1706 ft
Nearby Weather Stations

Elev 1706 ft 46.15 °N, 89.21 °W | Updated 18 minutes ago

Clear
Clear
58 °F
Feels Like 58 °F
N
17
Wind Variable Wind from West
Gusts 25 mph

Today
High -- | Low -- °F
--% Chance of Precip.
Yesterday
High -- | Low -- °F
Precip. -- in
7:24 AM 5:49 PM
Waxing Crescent, 4% visible
Pressure 29.82 in
Visibility 10.0 miles
Clouds Clear
Dew Point 23 °F
Humidity 26%
Rainfall 0.00 in
Snow Depth Not available.
UV 2 out of 12
Pollen 1.90 out of 12
Air Quality Not available.
Flu Activity Not available.
METAR KLNL 251955Z AUTO 28015G22KT 10SM CLR 14/M05 A2982 RMK AO2 T01421051

More Conditions Fewer Conditions

Pressure 29.82 in
Visibility 10.0 miles
Clouds Clear
Dew Point 23 °F
Humidity 26%
Rainfall 0.00 in
Snow Depth Not available.
UV 2 out of 12
Pollen 1.90 out of 12
Air Quality Not available.
Flu Activity Not available.
METAR KLNL 251955Z AUTO 28015G22KT 10SM CLR 14/M05 A2982 RMK AO2 T01421051

More Conditions Fewer Conditions

10-Day Weather Forecast

Almanac

Astronomy

Oct. 25, 2014 Rise Set
Actual Time 7:24 AM CDT 5:49 PM CDT
Civil Twilight 6:53 AM CDT 6:20 PM CDT
Nautical Twilight 6:18 AM CDT 6:55 PM CDT
Astronomical Twilight 5:43 AM CDT 7:30 PM CDT
Moon 9:07 AM CDT 7:08 PM CDT
Length of Visible Light 11h 27m
Length of Day
10h 25m
Tomorrow will be 3m 2s shorter.
Waxing Crescent, 4% of the Moon is Illuminated
Today
Waxing Crescent
Oct 30
First Quarter
Nov 6
Full
Nov 14
Last Quarter
Nov 22
New

Today's Extremes

State Highs State Lows

Community

WunderPhotos

Upload Photos

1,764,976 photos uploaded!

Nearby

Snow Depth

Station Depth Elevation
No new snow has been reported.

Earthquake Activity

City Distance Mag. Time & Date
No recent earthquake activity has been reported nearby.
Minimum magnitude displayed is 2.5.

Coastal Water Temperatures

Place Temperature
No Stations Reporting

Nearby Weather Stations